Time,TemperatureF,DewpointF,PressureIn,WindDirection,WindDirectionDegrees,WindSpeedMPH,WindSpeedGustMPH,Humidity,HourlyPrecipIn,Conditions,Clouds,dailyrainin,SolarRadiationWatts/m^2,SoftwareType,DateUTC
2013-03-03 00:01:00,43.0,14.0,-100.00,SW,227,8.0,22.0,31,0.00,,,0.00,1.000000,,2013-03-03 07:01:00,
2013-03-03 00:11:00,43.0,14.0,-100.00,SW,227,8.0,22.0,31,0.00,,,0.00,1.000000,,2013-03-03 07:11:00,
2013-03-03 00:21:00,43.0,14.0,-100.00,SW,227,8.0,22.0,31,0.00,,,0.00,1.000000,,2013-03-03 07:21:00,
2013-03-03 00:42:00,42.0,14.0,-100.00,SSW,199,8.0,22.0,32,0.00,,,0.00,1.000000,,2013-03-03 07:42:00,
2013-03-03 00:52:00,42.0,14.0,-100.00,SSW,199,8.0,22.0,32,0.00,,,0.00,1.000000,,2013-03-03 07:52:00,
2013-03-03 01:01:00,42.0,14.0,-100.00,SSW,199,8.0,22.0,32,0.00,,,0.00,1.000000,,2013-03-03 08:01:00,
2013-03-03 01:11:00,42.0,14.0,-100.00,SSW,199,8.0,22.0,32,0.00,,,0.00,1.000000,,2013-03-03 08:11:00,
2013-03-03 01:21:00,42.0,14.0,-100.00,SSW,199,8.0,22.0,32,0.00,,,0.00,1.000000,,2013-03-03 08:21:00,
2013-03-03 01:42:00,42.0,12.0,-100.00,SSW,207,10.0,25.0,29,0.00,,,0.00,1.000000,,2013-03-03 08:42:00,
2013-03-03 01:54:00,42.0,12.0,-100.00,SSW,207,10.0,25.0,29,0.00,,,0.00,1.000000,,2013-03-03 08:54:00,
2013-03-03 02:01:00,42.0,12.0,-100.00,SSW,207,10.0,25.0,29,0.00,,,0.00,1.000000,,2013-03-03 09:01:00,
2013-03-03 02:11:00,42.0,12.0,-100.00,SSW,207,10.0,25.0,29,0.00,,,0.00,1.000000,,2013-03-03 09:11:00,
2013-03-03 02:21:00,42.0,12.0,-100.00,SSW,207,10.0,25.0,29,0.00,,,0.00,1.000000,,2013-03-03 09:21:00,
2013-03-03 02:42:00,42.0,14.0,-100.00,WSW,247,6.0,23.0,32,0.00,,,0.00,1.000000,,2013-03-03 09:42:00,
2013-03-03 02:52:00,42.0,14.0,-100.00,WSW,247,6.0,23.0,32,0.00,,,0.00,1.000000,,2013-03-03 09:52:00,
2013-03-03 03:01:00,42.0,14.0,-100.00,WSW,247,6.0,23.0,32,0.00,,,0.00,1.000000,,2013-03-03 10:01:00,
2013-03-03 03:11:00,42.0,14.0,-100.00,WSW,247,6.0,23.0,32,0.00,,,0.00,1.000000,,2013-03-03 10:11:00,
2013-03-03 03:21:00,42.0,14.0,-100.00,WSW,247,6.0,23.0,32,0.00,,,0.00,1.000000,,2013-03-03 10:21:00,
2013-03-03 03:42:00,42.0,14.0,-100.00,SW,229,8.0,20.0,31,0.00,,,0.00,1.000000,,2013-03-03 10:42:00,
2013-03-03 03:52:00,42.0,14.0,-100.00,SW,229,8.0,20.0,31,0.00,,,0.00,1.000000,,2013-03-03 10:52:00,
2013-03-03 04:01:00,42.0,14.0,-100.00,SW,229,8.0,20.0,31,0.00,,,0.00,1.000000,,2013-03-03 11:01:00,
2013-03-03 04:11:00,42.0,14.0,-100.00,SW,229,8.0,20.0,31,0.00,,,0.00,1.000000,,2013-03-03 11:11:00,
2013-03-03 04:21:00,42.0,14.0,-100.00,SW,229,8.0,20.0,31,0.00,,,0.00,1.000000,,2013-03-03 11:21:00,
2013-03-03 04:42:00,42.0,14.0,-100.00,WSW,250,7.0,26.0,31,0.00,,,0.00,1.000000,,2013-03-03 11:42:00,
2013-03-03 04:53:00,42.0,14.0,-100.00,WSW,250,7.0,26.0,31,0.00,,,0.00,1.000000,,2013-03-03 11:53:00,
2013-03-03 05:01:00,42.0,14.0,-100.00,WSW,250,7.0,26.0,31,0.00,,,0.00,1.000000,,2013-03-03 12:01:00,
2013-03-03 05:11:00,42.0,14.0,-100.00,WSW,250,7.0,26.0,31,0.00,,,0.00,1.000000,,2013-03-03 12:11:00,
2013-03-03 05:21:00,42.0,14.0,-100.00,WSW,250,7.0,26.0,31,0.00,,,0.00,1.000000,,2013-03-03 12:21:00,
2013-03-03 05:43:00,41.0,13.0,-100.00,WSW,258,12.0,38.0,32,0.00,,,0.00,1.000000,,2013-03-03 12:43:00,
2013-03-03 05:53:00,41.0,13.0,-100.00,WSW,258,12.0,38.0,32,0.00,,,0.00,1.000000,,2013-03-03 12:53:00,
2013-03-03 06:01:00,41.0,13.0,-100.00,WSW,258,12.0,38.0,32,0.00,,,0.00,1.000000,,2013-03-03 13:01:00,
2013-03-03 06:11:00,41.0,13.0,-100.00,WSW,258,12.0,38.0,32,0.00,,,0.00,1.000000,,2013-03-03 13:11:00,
2013-03-03 06:21:00,41.0,13.0,-100.00,WSW,258,12.0,38.0,32,0.00,,,0.00,1.000000,,2013-03-03 13:21:00,
2013-03-03 06:42:00,40.0,14.0,-100.00,West,266,11.0,28.0,34,0.00,,,0.00,1.000000,,2013-03-03 13:42:00,
2013-03-03 06:52:00,40.0,14.0,-100.00,West,266,11.0,28.0,34,0.00,,,0.00,1.000000,,2013-03-03 13:52:00,
2013-03-03 07:02:00,40.0,14.0,-100.00,West,266,11.0,28.0,34,0.00,,,0.00,1.000000,,2013-03-03 14:02:00,
2013-03-03 07:11:00,40.0,14.0,-100.00,West,266,11.0,28.0,34,0.00,,,0.00,1.000000,,2013-03-03 14:11:00,
2013-03-03 07:21:00,40.0,14.0,-100.00,West,266,11.0,28.0,34,0.00,,,0.00,1.000000,,2013-03-03 14:21:00,
2013-03-03 07:42:00,40.0,15.0,-100.00,SW,233,9.0,25.0,36,0.00,,,0.00,6.000000,,2013-03-03 14:42:00,
2013-03-03 07:52:00,40.0,15.0,-100.00,SW,233,9.0,25.0,36,0.00,,,0.00,6.000000,,2013-03-03 14:52:00,
2013-03-03 08:01:00,40.0,15.0,-100.00,SW,233,9.0,25.0,36,0.00,,,0.00,6.000000,,2013-03-03 15:01:00,
2013-03-03 08:11:00,40.0,15.0,-100.00,SW,233,9.0,25.0,36,0.00,,,0.00,6.000000,,2013-03-03 15:11:00,
2013-03-03 08:22:00,40.0,15.0,-100.00,SW,233,9.0,25.0,36,0.00,,,0.00,6.000000,,2013-03-03 15:22:00,
2013-03-03 08:42:00,42.0,16.0,-100.00,WSW,247,11.0,31.0,34,0.00,,,0.00,81.000000,,2013-03-03 15:42:00,
2013-03-03 08:52:00,42.0,16.0,-100.00,WSW,247,11.0,31.0,34,0.00,,,0.00,81.000000,,2013-03-03 15:52:00,
2013-03-03 09:01:00,42.0,16.0,-100.00,WSW,247,11.0,31.0,34,0.00,,,0.00,81.000000,,2013-03-03 16:01:00,
2013-03-03 09:12:00,42.0,16.0,-100.00,WSW,247,11.0,31.0,34,0.00,,,0.00,81.000000,,2013-03-03 16:12:00,
2013-03-03 09:21:00,42.0,16.0,-100.00,WSW,247,11.0,31.0,34,0.00,,,0.00,81.000000,,2013-03-03 16:21:00,
2013-03-03 09:42:00,43.0,16.0,-100.00,WSW,252,14.0,36.0,33,0.00,,,0.00,137.000000,,2013-03-03 16:42:00,
2013-03-03 09:52:00,43.0,16.0,-100.00,WSW,252,14.0,36.0,33,0.00,,,0.00,137.000000,,2013-03-03 16:52:00,
2013-03-03 10:01:00,43.0,16.0,-100.00,WSW,252,14.0,36.0,33,0.00,,,0.00,137.000000,,2013-03-03 17:01:00,
2013-03-03 10:11:00,43.0,16.0,-100.00,WSW,252,14.0,36.0,33,0.00,,,0.00,137.000000,,2013-03-03 17:11:00,
2013-03-03 10:22:00,43.0,16.0,-100.00,WSW,252,14.0,36.0,33,0.00,,,0.00,137.000000,,2013-03-03 17:22:00,
2013-03-03 10:42:00,45.0,16.0,-100.00,West,264,11.0,32.0,31,0.00,,,0.00,328.000000,,2013-03-03 17:42:00,
2013-03-03 10:52:00,45.0,16.0,-100.00,West,264,11.0,32.0,31,0.00,,,0.00,328.000000,,2013-03-03 17:52:00,
2013-03-03 11:02:00,45.0,16.0,-100.00,West,264,11.0,32.0,31,0.00,,,0.00,328.000000,,2013-03-03 18:02:00,
2013-03-03 11:11:00,45.0,16.0,-100.00,West,264,11.0,32.0,31,0.00,,,0.00,328.000000,,2013-03-03 18:11:00,
2013-03-03 11:21:00,45.0,16.0,-100.00,West,264,11.0,32.0,31,0.00,,,0.00,328.000000,,2013-03-03 18:21:00,
2013-03-03 11:42:00,47.0,17.0,-100.00,WSW,245,15.0,28.0,30,0.00,,,0.00,501.000000,,2013-03-03 18:42:00,
2013-03-03 11:52:00,47.0,17.0,-100.00,WSW,245,15.0,28.0,30,0.00,,,0.00,501.000000,,2013-03-03 18:52:00,
2013-03-03 12:02:00,47.0,17.0,-100.00,WSW,245,15.0,28.0,30,0.00,,,0.00,501.000000,,2013-03-03 19:02:00,
2013-03-03 12:11:00,47.0,17.0,-100.00,WSW,245,15.0,28.0,30,0.00,,,0.00,501.000000,,2013-03-03 19:11:00,
2013-03-03 12:21:00,47.0,17.0,-100.00,WSW,245,15.0,28.0,30,0.00,,,0.00,501.000000,,2013-03-03 19:21:00,
2013-03-03 12:42:00,49.0,16.0,-100.00,WSW,248,15.0,32.0,26,0.00,,,0.00,747.000000,,2013-03-03 19:42:00,
2013-03-03 12:52:00,49.0,16.0,-100.00,WSW,248,15.0,32.0,26,0.00,,,0.00,747.000000,,2013-03-03 19:52:00,
2013-03-03 13:01:00,49.0,16.0,-100.00,WSW,248,15.0,32.0,26,0.00,,,0.00,747.000000,,2013-03-03 20:01:00,
2013-03-03 13:11:00,49.0,16.0,-100.00,WSW,248,15.0,32.0,26,0.00,,,0.00,747.000000,,2013-03-03 20:11:00,
2013-03-03 13:21:00,49.0,16.0,-100.00,WSW,248,15.0,32.0,26,0.00,,,0.00,747.000000,,2013-03-03 20:21:00,
2013-03-03 13:43:00,50.0,16.0,-100.00,WSW,246,14.0,39.0,25,0.00,,,0.00,790.000000,,2013-03-03 20:43:00,
2013-03-03 13:53:00,50.0,16.0,-100.00,WSW,246,14.0,39.0,25,0.00,,,0.00,790.000000,,2013-03-03 20:53:00,
2013-03-03 14:02:00,50.0,16.0,-100.00,WSW,246,14.0,39.0,25,0.00,,,0.00,790.000000,,2013-03-03 21:02:00,
2013-03-03 14:11:00,50.0,16.0,-100.00,WSW,246,14.0,39.0,25,0.00,,,0.00,790.000000,,2013-03-03 21:11:00,
2013-03-03 14:21:00,50.0,16.0,-100.00,WSW,246,14.0,39.0,25,0.00,,,0.00,790.000000,,2013-03-03 21:21:00,
2013-03-03 14:42:00,48.0,17.0,-100.00,WSW,242,19.0,47.0,29,0.00,,,-99.99,744.000000,,2013-03-03 21:42:00,
2013-03-03 14:52:00,48.0,17.0,-100.00,WSW,242,19.0,47.0,29,0.00,,,-99.99,744.000000,,2013-03-03 21:52:00,
2013-03-03 15:01:00,48.0,17.0,-100.00,WSW,242,19.0,47.0,29,0.00,,,-99.99,744.000000,,2013-03-03 22:01:00,
2013-03-03 15:11:00,48.0,17.0,-100.00,WSW,242,19.0,47.0,29,0.00,,,-99.99,744.000000,,2013-03-03 22:11:00,
2013-03-03 15:22:00,48.0,17.0,-100.00,WSW,242,19.0,47.0,29,0.00,,,-99.99,744.000000,,2013-03-03 22:22:00,
2013-03-03 15:42:00,45.0,19.0,-100.00,WSW,247,10.0,41.0,35,0.00,,,0.00,305.000000,,2013-03-03 22:42:00,
2013-03-03 15:52:00,45.0,19.0,-100.00,WSW,247,10.0,41.0,35,0.00,,,0.00,305.000000,,2013-03-03 22:52:00,
2013-03-03 16:01:00,45.0,19.0,-100.00,WSW,247,10.0,41.0,35,0.00,,,0.00,305.000000,,2013-03-03 23:01:00,
2013-03-03 16:11:00,45.0,19.0,-100.00,WSW,247,10.0,41.0,35,0.00,,,0.00,305.000000,,2013-03-03 23:11:00,
2013-03-03 16:21:00,45.0,19.0,-100.00,WSW,247,10.0,41.0,35,0.00,,,0.00,305.000000,,2013-03-03 23:21:00,
2013-03-03 16:42:00,43.0,20.0,-100.00,SW,230,12.0,28.0,39,0.00,,,0.00,146.000000,,2013-03-03 23:42:00,
2013-03-03 16:52:00,43.0,20.0,-100.00,SW,230,12.0,28.0,39,0.00,,,0.00,146.000000,,2013-03-03 23:52:00,
2013-03-03 17:01:00,43.0,20.0,-100.00,SW,230,12.0,28.0,39,0.00,,,0.00,146.000000,,2013-03-04 00:01:00,
2013-03-03 17:11:00,43.0,20.0,-100.00,SW,230,12.0,28.0,39,0.00,,,0.00,146.000000,,2013-03-04 00:11:00,
2013-03-03 17:21:00,43.0,20.0,-100.00,SW,230,12.0,28.0,39,0.00,,,0.00,146.000000,,2013-03-04 00:21:00,
2013-03-03 17:42:00,40.0,23.0,-100.00,WSW,255,9.0,25.0,51,0.00,,,0.00,79.000000,,2013-03-04 00:42:00,
2013-03-03 17:52:00,40.0,23.0,-100.00,WSW,255,9.0,25.0,51,0.00,,,0.00,79.000000,,2013-03-04 00:52:00,
2013-03-03 18:01:00,40.0,23.0,-100.00,WSW,255,9.0,25.0,51,0.00,,,0.00,79.000000,,2013-03-04 01:01:00,
2013-03-03 18:11:00,40.0,23.0,-100.00,WSW,255,9.0,25.0,51,0.00,,,0.00,79.000000,,2013-03-04 01:11:00,
2013-03-03 18:21:00,40.0,23.0,-100.00,WSW,255,9.0,25.0,51,0.00,,,0.00,79.000000,,2013-03-04 01:21:00,
2013-03-03 18:42:00,37.0,26.0,-100.00,WSW,245,5.0,18.0,63,0.00,,,0.00,11.000000,,2013-03-04 01:42:00,
2013-03-03 18:52:00,37.0,26.0,-100.00,WSW,245,5.0,18.0,63,0.00,,,0.00,11.000000,,2013-03-04 01:52:00,
2013-03-03 19:01:00,37.0,26.0,-100.00,WSW,245,5.0,18.0,63,0.00,,,0.00,11.000000,,2013-03-04 02:01:00,
2013-03-03 19:11:00,37.0,26.0,-100.00,WSW,245,5.0,18.0,63,0.00,,,0.00,11.000000,,2013-03-04 02:11:00,
2013-03-03 19:22:00,37.0,26.0,-100.00,WSW,245,5.0,18.0,63,0.00,,,0.00,11.000000,,2013-03-04 02:22:00,
2013-03-03 19:42:00,36.0,26.0,-100.00,West,270,2.0,9.0,68,0.00,,,0.00,1.000000,,2013-03-04 02:42:00,
2013-03-03 19:52:00,36.0,26.0,-100.00,West,270,2.0,9.0,68,0.00,,,0.00,1.000000,,2013-03-04 02:52:00,
2013-03-03 20:02:00,36.0,26.0,-100.00,West,270,2.0,9.0,68,0.00,,,0.00,1.000000,,2013-03-04 03:02:00,
2013-03-03 20:11:00,36.0,26.0,-100.00,West,270,2.0,9.0,68,0.00,,,0.00,1.000000,,2013-03-04 03:11:00,
2013-03-03 20:21:00,36.0,26.0,-100.00,West,270,2.0,9.0,68,0.00,,,0.00,1.000000,,2013-03-04 03:21:00,
2013-03-03 20:42:00,35.0,28.0,-100.00,West,278,2.0,7.0,76,0.00,,,0.00,1.000000,,2013-03-04 03:42:00,
2013-03-03 20:52:00,35.0,28.0,-100.00,West,278,2.0,7.0,76,0.00,,,0.00,1.000000,,2013-03-04 03:52:00,
2013-03-03 21:01:00,35.0,28.0,-100.00,West,278,2.0,7.0,76,0.00,,,0.00,1.000000,,2013-03-04 04:01:00,
2013-03-03 21:11:00,35.0,28.0,-100.00,West,278,2.0,7.0,76,0.00,,,0.00,1.000000,,2013-03-04 04:11:00,
2013-03-03 21:22:00,35.0,28.0,-100.00,West,278,2.0,7.0,76,0.00,,,0.00,1.000000,,2013-03-04 04:22:00,
2013-03-03 21:42:00,35.0,28.0,-100.00,WSW,246,3.0,10.0,75,0.00,,,0.00,1.000000,,2013-03-04 04:42:00,
2013-03-03 21:52:00,35.0,28.0,-100.00,WSW,246,3.0,10.0,75,0.00,,,0.00,1.000000,,2013-03-04 04:52:00,
2013-03-03 22:01:00,35.0,28.0,-100.00,WSW,246,3.0,10.0,75,0.00,,,0.00,1.000000,,2013-03-04 05:01:00,
2013-03-03 22:11:00,35.0,28.0,-100.00,WSW,246,3.0,10.0,75,0.00,,,0.00,1.000000,,2013-03-04 05:11:00,
2013-03-03 22:22:00,35.0,28.0,-100.00,WSW,246,3.0,10.0,75,0.00,,,0.00,1.000000,,2013-03-04 05:22:00,
2013-03-03 22:43:00,33.0,28.0,-100.00,NNW,340,1.0,5.0,81,0.00,,,0.00,1.000000,,2013-03-04 05:43:00,
2013-03-03 22:52:00,33.0,28.0,-100.00,NNW,340,1.0,5.0,81,0.00,,,0.00,1.000000,,2013-03-04 05:52:00,
2013-03-03 23:01:00,33.0,28.0,-100.00,NNW,340,1.0,5.0,81,0.00,,,0.00,1.000000,,2013-03-04 06:01:00,
2013-03-03 23:11:00,33.0,28.0,-100.00,NNW,340,1.0,5.0,81,0.00,,,0.00,1.000000,,2013-03-04 06:11:00,
2013-03-03 23:21:00,33.0,28.0,-100.00,NNW,340,1.0,5.0,81,0.00,,,0.00,1.000000,,2013-03-04 06:21:00,
2013-03-03 23:42:00,35.0,27.0,-100.00,North,351,6.0,11.0,72,0.00,,,0.00,1.000000,,2013-03-04 06:42:00,
2013-03-03 23:52:00,35.0,27.0,-100.00,North,351,6.0,11.0,72,0.00,,,0.00,1.000000,,2013-03-04 06:52:00,